Portada
METAR-TAF:

METAR-TAF

Aeropuertos :

Aeropuerto Internacional de Basora

Basora, Iraq

latitud: 30-32-56N, longitud: 47-39-45E, altitud: 1 m

Observación

El informe se hizo hace 1 hora y 25 minutos, a las 22:00 UTC
Viento 14 kt del oeste
Temperatura 27°C
Humedad 32%
Presión 1010 hPa
Visibilidad 10 km o más
sin nubes por debajo de 1500 m y sin presencia de cumulonimbus.

METAR: ORMM 252200Z 27014KT CAVOK 27/09 Q1010 NOSIG

Hora: 02:25 (23:25 UTC)

Pronóstico

El informe se hizo hace 7 horas y 25 minutos, a las 16:00 UTC
Pronóstico válido del 25 a las 18 UTC al 26 a las 18 UTC
Viento 10 kt del oeste
Visibilidad: 8000 m
Escasas nubes a una altura de 4000 ft
Temporalmente
del 26 a las 11 UTC al 26 a las 15 UTC
Viento 18 kt del oeste-noroeste
Visibilidad 10 km o más
sin nubes por debajo de 1500 m y sin presencia de cumulonimbus.

TAF: ORMM 251600Z 2518/2618 27010KT 8000 FEW040 TEMPO 2611/2615 30018KT CAVOK

Observaciones y pronósticos meteorológicos de más de 4000 aeropuertos (mensajes METAR y TAF).

Los puntos amarillos y rojos representan las estaciones disponibles.

Ponga el ratón en el punto deseado para ver el nombre de la estación.

Haga clic para ver las observaciones y los pronósticos meteorológicos.

Para cambiar el mapa : haga clic en los botones verdes con una cruz de color negro para hacer un zoom, en el botón verde con un guión para alejar o en las flechas verdes para mapas adyacentes.


METAR-TAF: